Time,TemperatureF,DewpointF,PressureIn,WindDirection,WindDirectionDegrees,WindSpeedMPH,WindSpeedGustMPH,Humidity,HourlyPrecipIn,Conditions,Clouds,dailyrainin,SoftwareType,DateUTC
2013-05-26 00:01:00,45.3,44.0,30.08,SW,215,7.0,7.0,95,0.00,,,0.00,Wunderground v.1.15,2013-05-26 07:01:00,
2013-05-26 00:07:00,45.3,44.2,30.08,South,184,6.0,8.0,96,0.00,,,0.00,Wunderground v.1.15,2013-05-26 07:07:00,
2013-05-26 00:12:00,45.3,44.2,30.08,South,189,5.0,5.0,96,0.00,,,0.00,Wunderground v.1.15,2013-05-26 07:12:00,
2013-05-26 00:17:00,45.3,44.2,30.08,SSE,159,5.0,8.0,96,0.00,,,0.00,Wunderground v.1.15,2013-05-26 07:17:00,
2013-05-26 00:22:00,45.3,44.2,30.08,SSW,196,5.0,7.0,96,0.00,,,0.00,Wunderground v.1.15,2013-05-26 07:22:00,
2013-05-26 00:27:00,45.4,44.3,30.08,SSW,210,4.0,7.0,96,0.00,,,0.00,Wunderground v.1.15,2013-05-26 07:27:00,
2013-05-26 00:33:00,45.4,44.3,30.08,SW,214,4.0,15.0,96,0.00,,,0.00,Wunderground v.1.15,2013-05-26 07:33:00,
2013-05-26 00:38:00,45.4,44.3,30.08,South,182,4.0,15.0,96,0.00,,,0.00,Wunderground v.1.15,2013-05-26 07:38:00,
2013-05-26 00:43:00,45.3,44.2,30.08,SSW,212,4.0,15.0,96,0.00,,,0.00,Wunderground v.1.15,2013-05-26 07:43:00,
2013-05-26 00:48:00,45.3,44.2,30.08,South,180,4.0,15.0,96,0.00,,,0.00,Wunderground v.1.15,2013-05-26 07:48:00,
2013-05-26 00:53:00,45.3,44.2,30.08,SSW,197,4.0,15.0,96,0.00,,,0.00,Wunderground v.1.15,2013-05-26 07:53:00,
2013-05-26 00:59:00,45.4,44.3,30.08,South,181,4.0,15.0,96,0.00,,,0.00,Wunderground v.1.15,2013-05-26 07:59:00,
2013-05-26 01:04:00,45.5,44.4,30.08,South,188,3.0,4.0,96,0.00,,,0.00,Wunderground v.1.15,2013-05-26 08:04:00,
2013-05-26 01:09:00,45.5,44.4,30.08,South,178,3.0,4.0,96,0.00,,,0.00,Wunderground v.1.15,2013-05-26 08:09:00,
2013-05-26 01:14:00,45.6,44.5,30.08,SSW,198,3.0,4.0,96,0.00,,,0.00,Wunderground v.1.15,2013-05-26 08:14:00,
2013-05-26 01:19:00,45.6,44.5,30.08,South,172,3.0,5.0,96,0.00,,,0.00,Wunderground v.1.15,2013-05-26 08:19:00,
2013-05-26 01:25:00,45.5,44.4,30.08,SSW,200,3.0,4.0,96,0.00,,,0.00,Wunderground v.1.15,2013-05-26 08:25:00,
2013-05-26 01:31:00,45.4,44.3,30.09,SSW,200,4.0,4.0,96,0.00,,,0.00,Wunderground v.1.15,2013-05-26 08:31:00,
2013-05-26 01:36:00,45.3,44.2,30.09,South,186,4.0,12.0,96,0.00,,,0.00,Wunderground v.1.15,2013-05-26 08:36:00,
2013-05-26 01:41:00,45.3,44.2,30.08,SSW,192,3.0,12.0,96,0.00,,,0.00,Wunderground v.1.15,2013-05-26 08:41:00,
2013-05-26 01:47:00,45.3,44.2,30.08,South,176,4.0,12.0,96,0.00,,,0.00,Wunderground v.1.15,2013-05-26 08:47:00,
2013-05-26 01:52:00,45.4,44.3,30.08,South,177,6.0,12.0,96,0.00,,,0.00,Wunderground v.1.15,2013-05-26 08:52:00,
2013-05-26 01:57:00,45.5,44.4,30.08,South,182,6.0,12.0,96,0.00,,,0.00,Wunderground v.1.15,2013-05-26 08:57:00,
2013-05-26 02:02:00,45.5,44.4,30.08,SSE,161,7.0,11.0,96,0.00,,,0.00,Wunderground v.1.15,2013-05-26 09:02:00,
2013-05-26 02:07:00,45.6,44.5,30.08,SSW,205,7.0,11.0,96,0.00,,,0.00,Wunderground v.1.15,2013-05-26 09:07:00,
2013-05-26 02:13:00,45.7,44.6,30.08,South,175,6.0,9.0,96,0.00,,,0.00,Wunderground v.1.15,2013-05-26 09:13:00,
2013-05-26 02:19:00,45.9,44.8,30.08,SSE,163,6.0,9.0,96,0.00,,,0.00,Wunderground v.1.15,2013-05-26 09:19:00,
2013-05-26 02:24:00,45.9,44.8,30.08,South,169,7.0,11.0,96,0.00,,,0.00,Wunderground v.1.15,2013-05-26 09:24:00,
2013-05-26 02:29:00,45.9,44.8,30.08,SSE,161,7.0,11.0,96,0.00,,,0.00,Wunderground v.1.15,2013-05-26 09:29:00,
2013-05-26 02:34:00,46.0,44.9,30.08,SE,144,7.0,11.0,96,0.00,,,0.00,Wunderground v.1.15,2013-05-26 09:34:00,
2013-05-26 02:40:00,46.0,44.9,30.08,South,184,6.0,6.0,96,0.00,,,0.00,Wunderground v.1.15,2013-05-26 09:40:00,
2013-05-26 02:45:00,46.0,44.9,30.08,SSE,159,5.0,11.0,96,0.00,,,0.00,Wunderground v.1.15,2013-05-26 09:45:00,
2013-05-26 02:50:00,46.0,44.9,30.08,South,169,7.0,11.0,96,0.00,,,0.00,Wunderground v.1.15,2013-05-26 09:50:00,
2013-05-26 02:55:00,46.0,44.9,30.08,SSE,168,6.0,11.0,96,0.00,,,0.00,Wunderground v.1.15,2013-05-26 09:55:00,
2013-05-26 03:00:00,46.0,44.9,30.08,SSW,212,4.0,4.0,96,0.00,,,0.00,Wunderground v.1.15,2013-05-26 10:00:00,
2013-05-26 03:06:00,46.3,45.2,30.08,South,174,3.0,4.0,96,0.00,,,0.00,Wunderground v.1.15,2013-05-26 10:06:00,
2013-05-26 03:12:00,46.3,45.2,30.08,SSE,160,4.0,7.0,96,0.00,,,0.00,Wunderground v.1.15,2013-05-26 10:12:00,
2013-05-26 03:17:00,46.5,45.7,30.08,SE,145,6.0,10.0,97,0.00,,,0.00,Wunderground v.1.15,2013-05-26 10:17:00,
2013-05-26 03:22:00,46.7,45.9,30.08,SSE,155,7.0,13.0,97,0.00,,,0.00,Wunderground v.1.15,2013-05-26 10:22:00,
2013-05-26 03:27:00,46.8,46.0,30.08,SSE,163,6.0,13.0,97,0.00,,,0.00,Wunderground v.1.15,2013-05-26 10:27:00,
2013-05-26 03:32:00,46.9,46.1,30.08,South,184,6.0,12.0,97,0.00,,,0.00,Wunderground v.1.15,2013-05-26 10:32:00,
2013-05-26 03:37:00,46.9,46.1,30.08,SSE,168,7.0,12.0,97,0.00,,,0.00,Wunderground v.1.15,2013-05-26 10:37:00,
2013-05-26 03:43:00,46.9,46.1,30.08,SSE,160,7.0,12.0,97,0.00,,,0.00,Wunderground v.1.15,2013-05-26 10:43:00,
2013-05-26 03:48:00,47.0,46.2,30.08,SSE,151,7.0,12.0,97,0.00,,,0.00,Wunderground v.1.15,2013-05-26 10:48:00,
2013-05-26 03:54:00,47.0,46.2,30.08,SSE,161,8.0,12.0,97,0.00,,,0.00,Wunderground v.1.15,2013-05-26 10:54:00,
2013-05-26 03:59:00,47.0,46.2,30.08,South,179,8.0,12.0,97,0.00,,,0.00,Wunderground v.1.15,2013-05-26 10:59:00,
2013-05-26 04:04:00,47.1,46.3,30.08,SSE,165,6.0,7.0,97,0.00,,,0.00,Wunderground v.1.15,2013-05-26 11:04:00,
2013-05-26 04:09:00,47.1,46.3,30.08,South,178,5.0,7.0,97,0.00,,,0.00,Wunderground v.1.15,2013-05-26 11:09:00,
2013-05-26 04:14:00,47.2,46.4,30.08,SSE,155,5.0,9.0,97,0.00,,,0.00,Wunderground v.1.15,2013-05-26 11:14:00,
2013-05-26 04:19:00,47.3,46.5,30.08,South,170,4.0,9.0,97,0.00,,,0.00,Wunderground v.1.15,2013-05-26 11:19:00,
2013-05-26 04:24:00,47.4,46.6,30.08,South,184,4.0,5.0,97,0.00,,,0.00,Wunderground v.1.15,2013-05-26 11:24:00,
2013-05-26 04:30:00,47.4,46.6,30.08,South,173,4.0,4.0,97,0.00,,,0.00,Wunderground v.1.15,2013-05-26 11:30:00,
2013-05-26 04:36:00,47.4,46.6,30.08,SSE,162,5.0,14.0,97,0.00,,,0.00,Wunderground v.1.15,2013-05-26 11:36:00,
2013-05-26 04:41:00,47.5,46.7,30.08,South,182,6.0,14.0,97,0.00,,,0.00,Wunderground v.1.15,2013-05-26 11:41:00,
2013-05-26 04:46:00,47.5,46.7,30.08,SSE,159,7.0,14.0,97,0.00,,,0.00,Wunderground v.1.15,2013-05-26 11:46:00,
2013-05-26 04:51:00,47.5,46.7,30.08,SSE,153,7.0,14.0,97,0.00,,,0.00,Wunderground v.1.15,2013-05-26 11:51:00,
2013-05-26 04:56:00,47.6,46.8,30.08,SSW,200,6.0,14.0,97,0.00,,,0.00,Wunderground v.1.15,2013-05-26 11:56:00,
2013-05-26 05:02:00,47.6,46.8,30.08,SW,221,5.0,9.0,97,0.00,,,0.00,Wunderground v.1.15,2013-05-26 12:02:00,
2013-05-26 05:07:00,47.7,46.9,30.08,South,173,5.0,9.0,97,0.00,,,0.00,Wunderground v.1.15,2013-05-26 12:07:00,
2013-05-26 05:12:00,47.7,46.9,30.08,SSE,166,4.0,8.0,97,0.00,,,0.00,Wunderground v.1.15,2013-05-26 12:12:00,
2013-05-26 05:17:00,47.6,46.8,30.08,SW,222,3.0,8.0,97,0.00,,,0.00,Wunderground v.1.15,2013-05-26 12:17:00,
2013-05-26 05:22:00,47.7,46.9,30.07,SSE,166,4.0,8.0,97,0.00,,,0.00,Wunderground v.1.15,2013-05-26 12:22:00,
2013-05-26 05:28:00,47.7,46.9,30.08,South,182,5.0,8.0,97,0.00,,,0.00,Wunderground v.1.15,2013-05-26 12:28:00,
2013-05-26 05:33:00,47.7,46.9,30.08,South,178,5.0,12.0,97,0.00,,,0.00,Wunderground v.1.15,2013-05-26 12:33:00,
2013-05-26 05:38:00,47.7,46.9,30.08,South,180,4.0,12.0,97,0.00,,,0.00,Wunderground v.1.15,2013-05-26 12:38:00,
2013-05-26 05:43:00,47.8,47.0,30.08,South,175,4.0,12.0,97,0.00,,,0.00,Wunderground v.1.15,2013-05-26 12:43:00,
2013-05-26 05:48:00,47.8,47.0,30.08,South,184,4.0,12.0,97,0.00,,,0.00,Wunderground v.1.15,2013-05-26 12:48:00,
2013-05-26 05:54:00,47.9,47.1,30.08,South,173,4.0,12.0,97,0.00,,,0.00,Wunderground v.1.15,2013-05-26 12:54:00,
2013-05-26 05:59:00,47.8,47.0,30.08,SSW,194,5.0,12.0,97,0.00,,,0.00,Wunderground v.1.15,2013-05-26 12:59:00,
2013-05-26 06:04:00,47.9,47.1,30.08,SSW,204,5.0,7.0,97,0.00,,,0.00,Wunderground v.1.15,2013-05-26 13:04:00,
2013-05-26 06:09:00,48.0,47.2,30.08,South,170,5.0,7.0,97,0.00,,,0.00,Wunderground v.1.15,2013-05-26 13:09:00,
2013-05-26 06:14:00,48.0,47.2,30.08,SSE,167,5.0,6.0,97,0.00,,,0.00,Wunderground v.1.15,2013-05-26 13:14:00,
2013-05-26 06:20:00,48.0,47.2,30.08,SSW,207,5.0,7.0,97,0.00,,,0.00,Wunderground v.1.15,2013-05-26 13:20:00,
2013-05-26 06:25:00,48.1,47.3,30.09,SSW,200,5.0,7.0,97,0.00,,,0.00,Wunderground v.1.15,2013-05-26 13:25:00,
2013-05-26 06:30:00,48.2,47.4,30.08,SSE,157,4.0,9.0,97,0.00,,,0.00,Wunderground v.1.15,2013-05-26 13:30:00,
2013-05-26 06:35:00,48.2,47.4,30.09,SW,227,4.0,9.0,97,0.00,,,0.00,Wunderground v.1.15,2013-05-26 13:35:00,
2013-05-26 06:40:00,48.2,47.4,30.09,SSW,196,4.0,4.0,97,0.00,,,0.00,Wunderground v.1.15,2013-05-26 13:40:00,
2013-05-26 06:46:00,48.0,47.2,30.09,SW,232,4.0,9.0,97,0.00,,,0.00,Wunderground v.1.15,2013-05-26 13:46:00,
2013-05-26 06:51:00,48.0,47.2,30.09,SSW,198,4.0,9.0,97,0.00,,,0.00,Wunderground v.1.15,2013-05-26 13:51:00,
2013-05-26 06:56:00,47.8,47.0,30.09,South,187,5.0,9.0,97,0.00,,,0.00,Wunderground v.1.15,2013-05-26 13:56:00,
2013-05-26 07:01:00,47.7,46.9,30.09,SW,222,5.0,5.0,97,0.00,,,0.00,Wunderground v.1.15,2013-05-26 14:01:00,
2013-05-26 07:06:00,47.7,46.9,30.09,SSW,201,5.0,7.0,97,0.00,,,0.00,Wunderground v.1.15,2013-05-26 14:06:00,
2013-05-26 07:12:00,47.7,46.9,30.09,WSW,238,5.0,6.0,97,0.00,,,0.00,Wunderground v.1.15,2013-05-26 14:12:00,
2013-05-26 07:17:00,47.6,46.8,30.09,SSW,197,5.0,6.0,97,0.00,,,0.00,Wunderground v.1.15,2013-05-26 14:17:00,
2013-05-26 07:22:00,47.6,46.8,30.09,South,186,4.0,6.0,97,0.00,,,0.00,Wunderground v.1.15,2013-05-26 14:22:00,
2013-05-26 07:27:00,47.6,46.8,30.09,SW,232,4.0,6.0,97,0.00,,,0.00,Wunderground v.1.15,2013-05-26 14:27:00,
2013-05-26 07:32:00,47.6,46.8,30.10,SW,225,3.0,11.0,97,0.00,,,0.00,Wunderground v.1.15,2013-05-26 14:32:00,
2013-05-26 07:38:00,47.7,46.9,30.10,WNW,283,2.0,11.0,97,0.00,,,0.00,Wunderground v.1.15,2013-05-26 14:38:00,
2013-05-26 07:43:00,47.7,46.9,30.10,WNW,287,1.0,11.0,97,0.00,,,0.00,Wunderground v.1.15,2013-05-26 14:43:00,
2013-05-26 07:48:00,47.7,46.9,30.10,SSW,193,2.0,11.0,97,0.00,,,0.00,Wunderground v.1.15,2013-05-26 14:48:00,
2013-05-26 07:53:00,47.5,46.7,30.11,South,188,2.0,11.0,97,0.00,,,0.00,Wunderground v.1.15,2013-05-26 14:53:00,
2013-05-26 07:58:00,47.5,46.7,30.11,SW,220,2.0,11.0,97,0.00,,,0.00,Wunderground v.1.15,2013-05-26 14:58:00,
2013-05-26 08:04:00,47.5,46.7,30.12,WSW,246,2.0,2.0,97,0.00,,,0.01,Wunderground v.1.15,2013-05-26 15:04:00,
2013-05-26 08:09:00,47.7,46.9,30.12,WSW,242,2.0,3.0,97,0.00,,,0.01,Wunderground v.1.15,2013-05-26 15:09:00,
2013-05-26 08:14:00,47.9,47.1,30.12,South,174,1.0,2.0,97,0.00,,,0.01,Wunderground v.1.15,2013-05-26 15:14:00,
2013-05-26 08:19:00,48.0,47.2,30.12,WNW,287,0.0,2.0,97,0.00,,,0.01,Wunderground v.1.15,2013-05-26 15:19:00,
2013-05-26 08:24:00,47.9,47.1,30.12,South,186,1.0,3.0,97,0.00,,,0.01,Wunderground v.1.15,2013-05-26 15:24:00,
2013-05-26 08:30:00,48.0,47.2,30.12,South,182,3.0,3.0,97,0.00,,,0.01,Wunderground v.1.15,2013-05-26 15:30:00,
2013-05-26 08:35:00,48.0,47.2,30.12,South,176,3.0,6.0,97,0.00,,,0.01,Wunderground v.1.15,2013-05-26 15:35:00,
2013-05-26 08:40:00,48.2,47.4,30.12,SSE,165,4.0,4.0,97,0.00,,,0.01,Wunderground v.1.15,2013-05-26 15:40:00,
2013-05-26 08:45:00,48.6,47.8,30.12,SW,214,3.0,6.0,97,0.00,,,0.01,Wunderground v.1.15,2013-05-26 15:45:00,
2013-05-26 08:50:00,49.0,48.2,30.12,SSW,209,3.0,6.0,97,0.00,,,0.01,Wunderground v.1.15,2013-05-26 15:50:00,
2013-05-26 08:56:00,49.1,48.3,30.13,South,178,3.0,6.0,97,0.00,,,0.01,Wunderground v.1.15,2013-05-26 15:56:00,
2013-05-26 09:01:00,49.5,48.7,30.13,WSW,238,3.0,3.0,97,0.00,,,0.01,Wunderground v.1.15,2013-05-26 16:01:00,
2013-05-26 09:06:00,49.5,48.7,30.13,SW,219,3.0,4.0,97,0.00,,,0.01,Wunderground v.1.15,2013-05-26 16:06:00,
2013-05-26 09:11:00,50.4,49.6,30.13,SW,215,3.0,3.0,97,0.00,,,0.01,Wunderground v.1.15,2013-05-26 16:11:00,
2013-05-26 09:16:00,50.4,49.9,30.13,SW,229,2.0,4.0,98,0.00,,,0.01,Wunderground v.1.15,2013-05-26 16:16:00,
2013-05-26 09:22:00,50.4,49.6,30.13,West,277,2.0,2.0,97,0.00,,,0.01,Wunderground v.1.15,2013-05-26 16:22:00,
2013-05-26 09:27:00,51.4,50.6,30.13,West,279,2.0,2.0,97,0.00,,,0.01,Wunderground v.1.15,2013-05-26 16:27:00,
2013-05-26 09:32:00,51.8,51.0,30.13,WNW,293,2.0,8.0,97,0.00,,,0.01,Wunderground v.1.15,2013-05-26 16:32:00,
2013-05-26 09:37:00,51.8,51.0,30.13,West,274,2.0,8.0,97,0.00,,,0.01,Wunderground v.1.15,2013-05-26 16:37:00,
2013-05-26 09:43:00,51.8,51.0,30.13,SE,136,2.0,8.0,97,0.00,,,0.01,Wunderground v.1.15,2013-05-26 16:43:00,
2013-05-26 09:48:00,51.8,51.3,30.13,WNW,292,2.0,8.0,98,0.00,,,0.01,Wunderground v.1.15,2013-05-26 16:48:00,
2013-05-26 09:54:00,51.7,51.2,30.13,NW,306,2.0,8.0,98,0.00,,,0.01,Wunderground v.1.15,2013-05-26 16:54:00,
2013-05-26 09:59:00,51.5,50.7,30.13,SW,230,2.0,8.0,97,0.00,,,0.01,Wunderground v.1.15,2013-05-26 16:59:00,
2013-05-26 10:04:00,51.1,50.3,30.13,WSW,243,2.0,5.0,97,0.00,,,0.01,Wunderground v.1.15,2013-05-26 17:04:00,
2013-05-26 10:10:00,52.4,51.6,30.13,West,267,3.0,3.0,97,0.00,,,0.01,Wunderground v.1.15,2013-05-26 17:10:00,
2013-05-26 10:15:00,52.8,52.3,30.13,SSW,209,3.0,4.0,98,0.00,,,0.01,Wunderground v.1.15,2013-05-26 17:15:00,
2013-05-26 10:20:00,52.7,52.2,30.13,South,173,3.0,4.0,98,0.00,,,0.01,Wunderground v.1.15,2013-05-26 17:20:00,
2013-05-26 10:25:00,53.4,52.6,30.13,SW,229,4.0,6.0,97,0.00,,,0.01,Wunderground v.1.15,2013-05-26 17:25:00,
2013-05-26 10:30:00,52.6,51.8,30.13,SSW,205,4.0,4.0,97,0.00,,,0.01,Wunderground v.1.15,2013-05-26 17:30:00,
2013-05-26 10:35:00,53.7,52.9,30.13,South,176,3.0,6.0,97,0.00,,,0.01,Wunderground v.1.15,2013-05-26 17:35:00,
2013-05-26 10:40:00,53.3,52.5,30.13,South,184,3.0,6.0,97,0.00,,,0.01,Wunderground v.1.15,2013-05-26 17:40:00,
2013-05-26 10:45:00,52.9,51.8,30.13,South,170,5.0,8.0,96,0.00,,,0.01,Wunderground v.1.15,2013-05-26 17:45:00,
2013-05-26 10:50:00,53.5,52.4,30.13,SSW,192,6.0,6.0,96,0.00,,,0.01,Wunderground v.1.15,2013-05-26 17:50:00,
2013-05-26 10:56:00,54.3,52.3,30.13,South,190,4.0,6.0,93,0.00,,,0.01,Wunderground v.1.15,2013-05-26 17:56:00,
2013-05-26 11:02:00,55.5,53.2,30.13,SSW,205,5.0,5.0,92,0.00,,,0.01,Wunderground v.1.15,2013-05-26 18:02:00,
2013-05-26 11:07:00,56.1,52.6,30.13,SSW,192,4.0,5.0,88,0.00,,,0.01,Wunderground v.1.15,2013-05-26 18:07:00,
2013-05-26 11:12:00,56.9,52.8,30.13,South,189,3.0,5.0,86,0.00,,,0.01,Wunderground v.1.15,2013-05-26 18:12:00,
2013-05-26 11:17:00,57.1,52.6,30.13,South,187,3.0,5.0,85,0.00,,,0.01,Wunderground v.1.15,2013-05-26 18:17:00,
2013-05-26 11:22:00,58.0,51.5,30.13,West,270,3.0,7.0,79,0.00,,,0.01,Wunderground v.1.15,2013-05-26 18:22:00,
2013-05-26 11:27:00,58.6,52.4,30.13,NW,319,3.0,7.0,80,0.00,,,0.01,Wunderground v.1.15,2013-05-26 18:27:00,
2013-05-26 11:32:00,58.2,50.3,30.14,SSW,205,4.0,12.0,75,0.00,,,0.01,Wunderground v.1.15,2013-05-26 18:32:00,
2013-05-26 11:37:00,59.0,51.1,30.14,WSW,239,4.0,12.0,75,0.00,,,0.01,Wunderground v.1.15,2013-05-26 18:37:00,
2013-05-26 11:42:00,59.3,50.6,30.14,WNW,292,3.0,12.0,73,0.00,,,0.01,Wunderground v.1.15,2013-05-26 18:42:00,
2013-05-26 11:48:00,59.3,48.7,30.14,NW,304,3.0,12.0,68,0.00,,,0.01,Wunderground v.1.15,2013-05-26 18:48:00,
2013-05-26 11:53:00,59.8,50.4,30.14,West,273,3.0,12.0,71,0.00,,,0.01,Wunderground v.1.15,2013-05-26 18:53:00,
2013-05-26 11:59:00,61.1,51.6,30.14,West,274,3.0,12.0,71,0.00,,,0.01,Wunderground v.1.15,2013-05-26 18:59:00,
2013-05-26 12:04:00,61.6,50.1,30.14,SW,235,3.0,5.0,66,0.00,,,0.01,Wunderground v.1.15,2013-05-26 19:04:00,
2013-05-26 12:09:00,62.0,50.5,30.14,West,279,3.0,5.0,66,0.00,,,0.01,Wunderground v.1.15,2013-05-26 19:09:00,
2013-05-26 12:14:00,61.7,49.4,30.13,SW,218,3.0,4.0,64,0.00,,,0.01,Wunderground v.1.15,2013-05-26 19:14:00,
2013-05-26 12:20:00,61.6,50.9,30.13,West,273,3.0,3.0,68,0.00,,,0.01,Wunderground v.1.15,2013-05-26 19:20:00,
2013-05-26 12:25:00,61.8,49.9,30.13,NW,318,3.0,4.0,65,0.00,,,0.01,Wunderground v.1.15,2013-05-26 19:25:00,
2013-05-26 12:30:00,61.4,49.9,30.13,SW,227,3.0,3.0,66,0.00,,,0.01,Wunderground v.1.15,2013-05-26 19:30:00,
2013-05-26 12:35:00,61.6,50.1,30.13,WNW,288,3.0,10.0,66,0.00,,,0.01,Wunderground v.1.15,2013-05-26 19:35:00,
2013-05-26 12:40:00,62.6,50.2,30.13,West,268,3.0,3.0,64,0.00,,,0.01,Wunderground v.1.15,2013-05-26 19:40:00,
2013-05-26 12:45:00,63.0,50.6,30.13,SSW,198,3.0,10.0,64,0.00,,,0.01,Wunderground v.1.15,2013-05-26 19:45:00,
2013-05-26 12:50:00,63.2,50.4,30.13,WSW,243,2.0,10.0,63,0.00,,,0.01,Wunderground v.1.15,2013-05-26 19:50:00,
2013-05-26 12:55:00,63.3,49.6,30.13,West,274,3.0,10.0,61,0.00,,,0.01,Wunderground v.1.15,2013-05-26 19:55:00,
2013-05-26 13:00:00,63.0,50.2,30.13,WSW,243,3.0,3.0,63,0.00,,,0.01,Wunderground v.1.15,2013-05-26 20:00:00,
2013-05-26 13:06:00,63.9,50.2,30.13,West,275,3.0,4.0,61,0.00,,,0.01,Wunderground v.1.15,2013-05-26 20:06:00,
2013-05-26 13:12:00,64.2,50.0,30.13,West,262,3.0,5.0,60,0.00,,,0.01,Wunderground v.1.15,2013-05-26 20:12:00,
2013-05-26 13:17:00,63.8,49.6,30.13,West,281,3.0,5.0,60,0.00,,,0.01,Wunderground v.1.15,2013-05-26 20:17:00,
2013-05-26 13:22:00,63.7,49.1,30.13,WSW,257,2.0,3.0,59,0.00,,,0.01,Wunderground v.1.15,2013-05-26 20:22:00,
2013-05-26 13:27:00,62.6,49.0,30.13,WNW,292,3.0,5.0,61,0.00,,,0.01,Wunderground v.1.15,2013-05-26 20:27:00,
2013-05-26 13:32:00,62.6,49.4,30.13,NW,313,3.0,9.0,62,0.00,,,0.01,Wunderground v.1.15,2013-05-26 20:32:00,
2013-05-26 13:38:00,62.4,49.2,30.13,West,267,3.0,9.0,62,0.00,,,0.01,Wunderground v.1.15,2013-05-26 20:38:00,
2013-05-26 13:43:00,63.5,49.4,30.13,WNW,292,3.0,9.0,60,0.00,,,0.01,Wunderground v.1.15,2013-05-26 20:43:00,
2013-05-26 13:48:00,63.4,49.3,30.13,WNW,292,3.0,10.0,60,0.00,,,0.01,Wunderground v.1.15,2013-05-26 20:48:00,
2013-05-26 13:53:00,62.9,47.9,30.13,NW,324,4.0,9.0,58,0.00,,,0.01,Wunderground v.1.15,2013-05-26 20:53:00,
2013-05-26 13:58:00,63.8,49.6,30.13,NW,309,4.0,9.0,60,0.00,,,0.01,Wunderground v.1.15,2013-05-26 20:58:00,
2013-05-26 14:03:00,64.2,48.6,30.13,WSW,250,3.0,6.0,57,0.00,,,0.01,Wunderground v.1.15,2013-05-26 21:03:00,
2013-05-26 14:08:00,64.7,48.6,30.13,NW,313,3.0,6.0,56,0.00,,,0.01,Wunderground v.1.15,2013-05-26 21:08:00,
2013-05-26 14:14:00,65.0,48.9,30.13,NW,305,4.0,6.0,56,0.00,,,0.01,Wunderground v.1.15,2013-05-26 21:14:00,
2013-05-26 14:19:00,64.9,49.3,30.12,WNW,288,4.0,6.0,57,0.00,,,0.01,Wunderground v.1.15,2013-05-26 21:19:00,
2013-05-26 14:24:00,64.5,48.9,30.12,NW,306,4.0,6.0,57,0.00,,,0.01,Wunderground v.1.15,2013-05-26 21:24:00,
2013-05-26 14:29:00,65.9,48.3,30.13,WNW,302,4.0,8.0,53,0.00,,,0.01,Wunderground v.1.15,2013-05-26 21:29:00,
2013-05-26 14:34:00,65.1,49.0,30.12,WNW,288,4.0,14.0,56,0.00,,,0.01,Wunderground v.1.15,2013-05-26 21:34:00,
2013-05-26 14:39:00,66.5,48.8,30.12,WSW,239,3.0,14.0,53,0.00,,,0.01,Wunderground v.1.15,2013-05-26 21:39:00,
2013-05-26 14:44:00,66.7,48.5,30.13,WSW,253,3.0,14.0,52,0.00,,,0.01,Wunderground v.1.15,2013-05-26 21:44:00,
2013-05-26 14:50:00,66.5,49.8,30.12,West,277,4.0,14.0,55,0.00,,,0.01,Wunderground v.1.15,2013-05-26 21:50:00,
2013-05-26 14:55:00,67.1,47.3,30.12,SSW,195,5.0,14.0,49,0.00,,,0.01,Wunderground v.1.15,2013-05-26 21:55:00,
2013-05-26 15:00:00,66.9,48.2,30.12,WSW,245,4.0,4.0,51,0.00,,,0.01,Wunderground v.1.15,2013-05-26 22:00:00,
2013-05-26 15:06:00,66.8,48.1,30.12,WNW,286,3.0,4.0,51,0.00,,,0.01,Wunderground v.1.15,2013-05-26 22:06:00,
2013-05-26 15:11:00,65.6,47.0,30.12,West,270,3.0,4.0,51,0.00,,,0.01,Wunderground v.1.15,2013-05-26 22:11:00,
2013-05-26 15:16:00,65.0,46.9,30.12,WSW,238,3.0,4.0,52,0.00,,,0.01,Wunderground v.1.15,2013-05-26 22:16:00,
2013-05-26 15:21:00,65.5,48.4,30.12,West,279,3.0,4.0,54,0.00,,,0.01,Wunderground v.1.15,2013-05-26 22:21:00,
2013-05-26 15:27:00,65.3,49.2,30.12,NW,311,4.0,9.0,56,0.00,,,0.01,Wunderground v.1.15,2013-05-26 22:27:00,
2013-05-26 15:32:00,66.7,49.5,30.12,SSW,204,5.0,10.0,54,0.00,,,0.01,Wunderground v.1.15,2013-05-26 22:32:00,
2013-05-26 15:37:00,67.5,49.8,30.12,SW,232,4.0,10.0,53,0.00,,,0.01,Wunderground v.1.15,2013-05-26 22:37:00,
2013-05-26 15:42:00,66.7,49.5,30.12,West,263,3.0,10.0,54,0.00,,,0.01,Wunderground v.1.15,2013-05-26 22:42:00,
2013-05-26 15:48:00,66.9,48.7,30.12,SW,229,4.0,10.0,52,0.00,,,0.01,Wunderground v.1.15,2013-05-26 22:48:00,
2013-05-26 15:53:00,66.7,48.0,30.12,WSW,254,3.0,10.0,51,0.00,,,0.01,Wunderground v.1.15,2013-05-26 22:53:00,
2013-05-26 15:58:00,65.9,49.3,30.12,West,266,3.0,10.0,55,0.00,,,0.01,Wunderground v.1.15,2013-05-26 22:58:00,
2013-05-26 16:03:00,65.7,47.6,30.12,SW,234,2.0,5.0,52,0.00,,,0.01,Wunderground v.1.15,2013-05-26 23:03:00,
2013-05-26 16:08:00,65.3,47.2,30.12,NW,304,2.0,5.0,52,0.00,,,0.01,Wunderground v.1.15,2013-05-26 23:08:00,
2013-05-26 16:14:00,64.7,48.2,30.12,West,271,3.0,4.0,55,0.00,,,0.01,Wunderground v.1.15,2013-05-26 23:14:00,
2013-05-26 16:19:00,64.4,47.4,30.12,WNW,289,3.0,4.0,54,0.00,,,0.01,Wunderground v.1.15,2013-05-26 23:19:00,
2013-05-26 16:24:00,63.6,47.6,30.12,West,263,3.0,5.0,56,0.00,,,0.01,Wunderground v.1.15,2013-05-26 23:24:00,
2013-05-26 16:29:00,63.5,47.5,30.12,SW,219,3.0,7.0,56,0.00,,,0.01,Wunderground v.1.15,2013-05-26 23:29:00,
2013-05-26 16:34:00,63.9,48.4,30.12,WSW,257,3.0,10.0,57,0.00,,,0.01,Wunderground v.1.15,2013-05-26 23:34:00,
2013-05-26 16:39:00,63.6,47.6,30.12,WSW,240,3.0,10.0,56,0.00,,,0.01,Wunderground v.1.15,2013-05-26 23:39:00,
2013-05-26 16:44:00,64.0,48.9,30.12,West,281,3.0,10.0,58,0.00,,,0.01,Wunderground v.1.15,2013-05-26 23:44:00,
2013-05-26 16:49:00,64.0,48.0,30.12,West,261,3.0,10.0,56,0.00,,,0.01,Wunderground v.1.15,2013-05-26 23:49:00,
2013-05-26 16:54:00,63.3,47.8,30.12,WSW,252,3.0,10.0,57,0.00,,,0.01,Wunderground v.1.15,2013-05-26 23:54:00,
2013-05-26 16:59:00,62.9,48.8,30.12,WNW,284,3.0,10.0,60,0.00,,,0.01,Wunderground v.1.15,2013-05-26 23:59:00,
2013-05-26 17:04:00,62.7,48.6,30.12,West,263,3.0,6.0,60,0.00,,,0.01,Wunderground v.1.15,2013-05-27 00:04:00,
2013-05-26 17:09:00,63.6,48.5,30.12,WSW,237,3.0,6.0,58,0.00,,,0.01,Wunderground v.1.15,2013-05-27 00:09:00,
2013-05-26 17:15:00,63.7,48.2,30.11,NW,322,2.0,5.0,57,0.00,,,0.01,Wunderground v.1.15,2013-05-27 00:15:00,
2013-05-26 17:20:00,63.2,47.2,30.12,West,269,3.0,3.0,56,0.00,,,0.01,Wunderground v.1.15,2013-05-27 00:20:00,
2013-05-26 17:25:00,62.8,47.3,30.11,SW,231,3.0,7.0,57,0.00,,,0.01,Wunderground v.1.15,2013-05-27 00:25:00,
2013-05-26 17:31:00,62.1,47.1,30.11,SW,228,3.0,5.0,58,0.00,,,0.01,Wunderground v.1.15,2013-05-27 00:31:00,
2013-05-26 17:36:00,62.1,47.1,30.11,WSW,253,4.0,9.0,58,0.00,,,0.01,Wunderground v.1.15,2013-05-27 00:36:00,
2013-05-26 17:42:00,61.1,47.5,30.11,WSW,242,4.0,9.0,61,0.00,,,0.01,Wunderground v.1.15,2013-05-27 00:42:00,
2013-05-26 17:47:00,60.9,47.4,30.11,West,281,4.0,9.0,61,0.00,,,0.01,Wunderground v.1.15,2013-05-27 00:47:00,
2013-05-26 17:52:00,60.9,46.9,30.11,West,265,3.0,9.0,60,0.00,,,0.01,Wunderground v.1.15,2013-05-27 00:52:00,
2013-05-26 18:26:00,58.2,46.9,30.11,WSW,255,3.0,3.0,66,0.00,,,0.01,Wunderground v.1.15,2013-05-27 01:26:00,
2013-05-26 18:32:00,57.6,47.9,30.11,WNW,290,3.0,9.0,70,0.00,,,0.01,Wunderground v.1.15,2013-05-27 01:32:00,
2013-05-26 18:37:00,57.9,47.0,30.11,NW,307,3.0,7.0,67,0.00,,,0.01,Wunderground v.1.15,2013-05-27 01:37:00,
2013-05-26 18:42:00,57.4,47.3,30.10,SW,233,2.0,9.0,69,0.00,,,0.01,Wunderground v.1.15,2013-05-27 01:42:00,
2013-05-26 18:48:00,57.5,47.8,30.11,SSE,161,2.0,9.0,70,0.00,,,0.01,Wunderground v.1.15,2013-05-27 01:48:00,
2013-05-26 18:53:00,56.9,47.6,30.11,SSW,200,2.0,9.0,71,0.00,,,0.01,Wunderground v.1.15,2013-05-27 01:53:00,
2013-05-26 18:58:00,56.4,47.1,30.11,SSW,209,2.0,4.0,71,0.00,,,0.01,Wunderground v.1.15,2013-05-27 01:58:00,
2013-05-26 19:03:00,56.0,46.7,30.11,WSW,237,2.0,4.0,71,0.00,,,0.01,Wunderground v.1.15,2013-05-27 02:03:00,
2013-05-26 19:08:00,55.6,46.7,30.11,SW,229,3.0,4.0,72,0.00,,,0.01,Wunderground v.1.15,2013-05-27 02:08:00,
2013-05-26 19:13:00,54.9,46.4,30.11,SW,226,3.0,6.0,73,0.00,,,0.01,Wunderground v.1.15,2013-05-27 02:13:00,
2013-05-26 19:18:00,54.3,46.5,30.11,WNW,295,2.0,6.0,75,0.00,,,0.01,Wunderground v.1.15,2013-05-27 02:18:00,
2013-05-26 19:24:00,53.8,45.3,30.11,West,271,3.0,5.0,73,0.00,,,0.01,Wunderground v.1.15,2013-05-27 02:24:00,
2013-05-26 19:29:00,52.9,45.5,30.11,WNW,287,3.0,5.0,76,0.00,,,0.01,Wunderground v.1.15,2013-05-27 02:29:00,
2013-05-26 19:34:00,52.3,45.6,30.11,WNW,297,2.0,8.0,78,0.00,,,0.01,Wunderground v.1.15,2013-05-27 02:34:00,
2013-05-26 19:39:00,51.7,45.7,30.11,WNW,292,2.0,8.0,80,0.00,,,0.01,Wunderground v.1.15,2013-05-27 02:39:00,
2013-05-26 19:44:00,51.5,45.9,30.11,WNW,284,2.0,8.0,81,0.00,,,0.01,Wunderground v.1.15,2013-05-27 02:44:00,
2013-05-26 19:50:00,51.3,46.3,30.12,West,265,2.0,2.0,83,0.00,,,0.01,Wunderground v.1.15,2013-05-27 02:50:00,
2013-05-26 19:55:00,51.0,46.3,30.12,NW,312,2.0,8.0,84,0.00,,,0.01,Wunderground v.1.15,2013-05-27 02:55:00,
2013-05-26 20:00:00,50.4,46.1,30.12,SW,225,2.0,2.0,85,0.00,,,0.01,Wunderground v.1.15,2013-05-27 03:00:00,
2013-05-26 20:06:00,49.9,45.9,30.12,SSW,198,3.0,5.0,86,0.00,,,0.01,Wunderground v.1.15,2013-05-27 03:06:00,
2013-05-26 20:11:00,49.6,46.2,30.11,SSW,208,3.0,3.0,88,0.00,,,0.01,Wunderground v.1.15,2013-05-27 03:11:00,
2013-05-26 20:16:00,49.3,45.9,30.12,SW,227,4.0,4.0,88,0.00,,,0.01,Wunderground v.1.15,2013-05-27 03:16:00,
2013-05-26 20:21:00,49.2,46.1,30.12,WSW,253,4.0,7.0,89,0.00,,,0.01,Wunderground v.1.15,2013-05-27 03:21:00,
2013-05-26 20:26:00,49.0,45.9,30.12,WSW,247,3.0,7.0,89,0.00,,,0.01,Wunderground v.1.15,2013-05-27 03:26:00,
2013-05-26 20:31:00,48.7,45.6,30.12,West,263,3.0,7.0,89,0.00,,,0.01,Wunderground v.1.15,2013-05-27 03:31:00,
2013-05-26 20:36:00,48.5,45.7,30.12,West,265,2.0,7.0,90,0.00,,,0.01,Wunderground v.1.15,2013-05-27 03:36:00,
2013-05-26 20:42:00,48.2,45.4,30.12,SW,218,2.0,7.0,90,0.00,,,0.01,Wunderground v.1.15,2013-05-27 03:42:00,
2013-05-26 20:47:00,48.1,45.3,30.12,WSW,255,4.0,7.0,90,0.00,,,0.01,Wunderground v.1.15,2013-05-27 03:47:00,
2013-05-26 20:53:00,47.9,45.4,30.11,WSW,242,3.0,7.0,91,0.00,,,0.01,Wunderground v.1.15,2013-05-27 03:53:00,
2013-05-26 20:58:00,47.9,45.7,30.12,SW,223,2.0,7.0,92,0.00,,,0.01,Wunderground v.1.15,2013-05-27 03:58:00,
2013-05-26 21:01:00,47.8,45.6,30.12,WSW,239,2.0,5.0,92,0.00,,,0.01,Wunderground v.1.15,2013-05-27 04:01:00,
2013-05-26 21:03:00,47.8,45.6,30.12,WSW,242,3.0,5.0,92,0.00,,,0.01,Wunderground v.1.15,2013-05-27 04:03:00,
2013-05-26 21:04:00,47.8,45.9,30.12,SW,215,3.0,5.0,93,0.00,,,0.01,Wunderground v.1.15,2013-05-27 04:04:00,
2013-05-26 21:05:00,47.8,45.6,30.12,WSW,238,3.0,5.0,92,0.00,,,0.01,Wunderground v.1.15,2013-05-27 04:05:00,
2013-05-26 21:10:00,47.6,45.4,30.13,WSW,238,3.0,4.0,92,0.00,,,0.01,Wunderground v.1.15,2013-05-27 04:10:00,
2013-05-26 21:15:00,47.4,45.5,30.13,SW,222,4.0,6.0,93,0.00,,,0.01,Wunderground v.1.15,2013-05-27 04:15:00,
2013-05-26 21:21:00,47.3,45.4,30.13,SW,236,4.0,4.0,93,0.00,,,0.01,Wunderground v.1.15,2013-05-27 04:21:00,
2013-05-26 21:26:00,47.2,45.3,30.13,SSW,200,4.0,6.0,93,0.00,,,0.01,Wunderground v.1.15,2013-05-27 04:26:00,
2013-05-26 21:31:00,47.1,45.2,30.13,SW,233,4.0,8.0,93,0.00,,,0.01,Wunderground v.1.15,2013-05-27 04:31:00,
2013-05-26 21:36:00,47.0,45.1,30.14,SW,233,4.0,8.0,93,0.00,,,0.01,Wunderground v.1.15,2013-05-27 04:36:00,
2013-05-26 21:41:00,47.0,45.4,30.14,SSW,207,4.0,8.0,94,0.00,,,0.01,Wunderground v.1.15,2013-05-27 04:41:00,
2013-05-26 21:47:00,47.2,45.6,30.14,WSW,250,4.0,8.0,94,0.00,,,0.01,Wunderground v.1.15,2013-05-27 04:47:00,
2013-05-26 21:52:00,47.2,45.6,30.14,WSW,239,4.0,8.0,94,0.00,,,0.01,Wunderground v.1.15,2013-05-27 04:52:00,
2013-05-26 21:57:00,47.3,45.7,30.15,SW,231,4.0,8.0,94,0.00,,,0.01,Wunderground v.1.15,2013-05-27 04:57:00,
2013-05-26 22:02:00,47.2,45.6,30.15,SW,234,4.0,4.0,94,0.00,,,0.01,Wunderground v.1.15,2013-05-27 05:02:00,
2013-05-26 22:07:00,47.2,45.6,30.15,SSE,153,3.0,4.0,94,0.00,,,0.01,Wunderground v.1.15,2013-05-27 05:07:00,
2013-05-26 22:13:00,47.3,45.7,30.15,SSW,194,3.0,4.0,94,0.00,,,0.01,Wunderground v.1.15,2013-05-27 05:13:00,
2013-05-26 22:18:00,47.3,45.9,30.15,SW,223,3.0,4.0,95,0.00,,,0.01,Wunderground v.1.15,2013-05-27 05:18:00,
2013-05-26 22:23:00,47.3,45.9,30.15,SSW,211,3.0,6.0,95,0.00,,,0.01,Wunderground v.1.15,2013-05-27 05:23:00,
2013-05-26 22:28:00,47.4,46.0,30.15,SSE,168,3.0,7.0,95,0.00,,,0.01,Wunderground v.1.15,2013-05-27 05:28:00,
2013-05-26 22:33:00,47.4,46.0,30.16,SSW,201,3.0,9.0,95,0.00,,,0.01,Wunderground v.1.15,2013-05-27 05:33:00,
2013-05-26 22:39:00,47.4,46.0,30.16,SSW,213,3.0,9.0,95,0.00,,,0.01,Wunderground v.1.15,2013-05-27 05:39:00,
2013-05-26 22:44:00,47.3,45.9,30.15,SSW,211,3.0,9.0,95,0.00,,,0.01,Wunderground v.1.15,2013-05-27 05:44:00,
2013-05-26 22:49:00,47.3,45.9,30.15,SW,236,3.0,9.0,95,0.00,,,0.01,Wunderground v.1.15,2013-05-27 05:49:00,
2013-05-26 22:54:00,47.3,45.9,30.15,SSW,210,3.0,9.0,95,0.00,,,0.01,Wunderground v.1.15,2013-05-27 05:54:00,
2013-05-26 22:59:00,47.3,45.9,30.15,SW,227,3.0,9.0,95,0.00,,,0.01,Wunderground v.1.15,2013-05-27 05:59:00,
2013-05-26 23:05:00,47.2,45.8,30.15,SW,227,4.0,7.0,95,0.00,,,0.01,Wunderground v.1.15,2013-05-27 06:05:00,
2013-05-26 23:10:00,47.2,45.8,30.15,West,265,4.0,4.0,95,0.00,,,0.01,Wunderground v.1.15,2013-05-27 06:10:00,
2013-05-26 23:15:00,47.2,45.8,30.15,SW,220,3.0,6.0,95,0.00,,,0.01,Wunderground v.1.15,2013-05-27 06:15:00,
2013-05-26 23:20:00,47.2,45.8,30.15,WSW,257,4.0,4.0,95,0.00,,,0.01,Wunderground v.1.15,2013-05-27 06:20:00,
2013-05-26 23:25:00,47.2,46.1,30.15,WSW,238,3.0,5.0,96,0.00,,,0.01,Wunderground v.1.15,2013-05-27 06:25:00,
2013-05-26 23:31:00,47.2,46.1,30.15,South,183,3.0,8.0,96,0.00,,,0.01,Wunderground v.1.15,2013-05-27 06:31:00,
2013-05-26 23:36:00,47.2,46.1,30.15,SSW,202,3.0,8.0,96,0.00,,,0.01,Wunderground v.1.15,2013-05-27 06:36:00,
2013-05-26 23:41:00,47.1,46.0,30.15,SSE,151,3.0,8.0,96,0.00,,,0.01,Wunderground v.1.15,2013-05-27 06:41:00,
2013-05-26 23:46:00,47.1,46.0,30.15,WSW,246,3.0,8.0,96,0.00,,,0.01,Wunderground v.1.15,2013-05-27 06:46:00,
2013-05-26 23:51:00,47.1,46.0,30.15,SSW,192,3.0,8.0,96,0.00,,,0.01,Wunderground v.1.15,2013-05-27 06:51:00,
2013-05-26 23:57:00,47.1,46.0,30.15,South,169,4.0,8.0,96,0.00,,,0.01,Wunderground v.1.15,2013-05-27 06:57:00,